createdAt,value
2023-05-18T00:00:27.104Z,102141.63
2023-05-18T00:02:28.740Z,102149.38
2023-05-18T00:04:31.335Z,102147.50
2023-05-18T00:06:32.831Z,102148.41
2023-05-18T00:08:34.863Z,102144.72
2023-05-18T00:10:36.515Z,102148.28
2023-05-18T00:12:38.064Z,102142.88
2023-05-18T00:14:39.563Z,102141.91
2023-05-18T00:16:41.418Z,102137.38
2023-05-18T00:18:45.289Z,102141.91
2023-05-18T00:20:46.822Z,102135.69
2023-05-18T00:22:50.608Z,102140.19
2023-05-18T00:24:52.415Z,102138.47
2023-05-18T00:26:53.911Z,102139.44
2023-05-18T00:28:55.474Z,102140.31
2023-05-18T00:30:57.339Z,102135.78
2023-05-18T00:32:58.985Z,102139.34
2023-05-18T00:35:00.715Z,102133.97
2023-05-18T00:37:02.137Z,102128.47
2023-05-18T00:39:04.616Z,102127.50
2023-05-18T00:41:06.409Z,102132.88
2023-05-18T00:43:08.044Z,102136.41
2023-05-18T00:45:09.748Z,102127.50
2023-05-18T00:47:11.647Z,102124.94
2023-05-18T00:49:13.368Z,102137.38
2023-05-18T00:51:14.996Z,102128.47
2023-05-18T00:53:16.539Z,102136.53
2023-05-18T00:55:18.463Z,102138.38
2023-05-18T00:57:20.480Z,102138.25
2023-05-18T00:59:22.151Z,102138.25
2023-05-18T01:01:30.540Z,102135.56
2023-05-18T01:03:33.464Z,102126.41
2023-05-18T01:05:34.980Z,102134.47
2023-05-18T01:07:37.728Z,102138.13
2023-05-18T01:09:39.350Z,102133.59
2023-05-18T01:11:41.172Z,102136.41
2023-05-18T01:14:03.003Z,102130.91
2023-05-18T01:16:08.044Z,102139.09
2023-05-18T01:18:10.335Z,102130.19
2023-05-18T01:20:15.596Z,102126.63
2023-05-18T01:22:29.574Z,102123.91
2023-05-18T01:24:36.196Z,102123.91
2023-05-18T01:26:41.388Z,102121.22
2023-05-18T01:28:46.212Z,102122.94
2023-05-18T01:30:48.171Z,102132.00
2023-05-18T01:32:49.668Z,102124.81
2023-05-18T01:34:51.435Z,102121.97
2023-05-18T01:36:53.123Z,102122.94
2023-05-18T01:38:55.236Z,102134.81
2023-05-18T01:41:03.189Z,102127.72
2023-05-18T01:43:10.260Z,102126.88
2023-05-18T01:45:17.461Z,102132.25
2023-05-18T01:47:19.205Z,102134.81
2023-05-18T01:49:27.766Z,102135.78
2023-05-18T01:51:32.120Z,102133.00
2023-05-18T01:53:38.153Z,102133.97
2023-05-18T01:55:40.516Z,102129.56
2023-05-18T01:57:44.574Z,102124.16
2023-05-18T01:59:46.239Z,102128.69
2023-05-18T02:01:47.950Z,102131.38
2023-05-18T02:03:49.627Z,102135.06
2023-05-18T02:05:51.269Z,102132.47
2023-05-18T02:07:52.777Z,102138.81
2023-05-18T02:09:54.265Z,102135.16
2023-05-18T02:11:55.959Z,102137.97
2023-05-18T02:13:57.589Z,102129.88
2023-05-18T02:15:59.303Z,102134.31
2023-05-18T02:18:00.923Z,102130.75
2023-05-18T02:20:02.542Z,102128.91
2023-05-18T02:22:06.788Z,102127.19
2023-05-18T02:24:08.506Z,102136.13
2023-05-18T02:26:10.077Z,102135.28
2023-05-18T02:28:12.008Z,102140.78
2023-05-18T02:30:15.920Z,102135.41
2023-05-18T02:32:17.834Z,102132.78
2023-05-18T02:34:19.902Z,102138.09
2023-05-18T02:36:22.738Z,102137.34
2023-05-18T02:38:24.196Z,102143.69
2023-05-18T02:40:25.845Z,102138.19
2023-05-18T02:42:27.314Z,102133.69
2023-05-18T02:44:29.032Z,102137.22
2023-05-18T02:46:30.830Z,102137.13
2023-05-18T02:48:32.631Z,102135.41
2023-05-18T02:50:34.124Z,102136.25
2023-05-18T02:52:35.603Z,102132.72
2023-05-18T02:54:37.067Z,102138.19
2023-05-18T02:56:38.558Z,102141.00
2023-05-18T02:58:40.220Z,102141.88
2023-05-18T03:00:42.159Z,102133.88
2023-05-18T03:02:44.371Z,102140.16
2023-05-18T03:04:49.367Z,102141.00
2023-05-18T03:06:52.898Z,102147.25
2023-05-18T03:08:54.621Z,102136.50
2023-05-18T03:10:56.181Z,102143.56
2023-05-18T03:12:57.640Z,102132.78
2023-05-18T03:14:59.168Z,102132.78
2023-05-18T03:17:01.530Z,102134.66
2023-05-18T03:19:03.165Z,102136.50
2023-05-18T03:21:04.861Z,102134.78
2023-05-18T03:23:06.496Z,102131.09
2023-05-18T03:25:09.349Z,102130.34
2023-05-18T03:27:16.519Z,102137.56
2023-05-18T03:29:17.969Z,102138.44
2023-05-18T03:31:19.512Z,102136.59
2023-05-18T03:33:21.059Z,102136.59
2023-05-18T03:35:22.594Z,102134.66
2023-05-18T03:37:24.058Z,102129.38
2023-05-18T03:39:25.528Z,102124.84
2023-05-18T03:41:27.131Z,102128.41
2023-05-18T03:43:29.642Z,102127.53
2023-05-18T03:45:31.556Z,102124.97
2023-05-18T03:47:33.639Z,102128.50
2023-05-18T03:49:35.221Z,102132.06
2023-05-18T03:51:36.785Z,102128.63
2023-05-18T03:53:38.265Z,102124.97
2023-05-18T03:55:39.752Z,102128.63
2023-05-18T03:57:41.316Z,102122.28
2023-05-18T03:59:43.197Z,102129.47
2023-05-18T04:01:44.685Z,102130.34
2023-05-18T04:03:46.298Z,102131.19
2023-05-18T04:05:49.660Z,102133.03
2023-05-18T04:07:51.218Z,102133.03
2023-05-18T04:09:54.002Z,102133.88
2023-05-18T04:11:55.464Z,102131.31
2023-05-18T04:13:58.014Z,102136.69
2023-05-18T04:15:59.822Z,102139.41
2023-05-18T04:18:02.180Z,102138.63
2023-05-18T04:20:13.019Z,102139.53
2023-05-18T04:22:15.027Z,102144.91
2023-05-18T04:24:16.693Z,102145.75
2023-05-18T04:26:20.208Z,102143.94
2023-05-18T04:28:21.810Z,102149.31
2023-05-18T04:30:23.899Z,102149.19
2023-05-18T04:32:28.370Z,102149.31
2023-05-18T04:34:30.557Z,102157.38
2023-05-18T04:36:32.052Z,102155.66
2023-05-18T04:38:34.636Z,102153.94
2023-05-18T04:40:38.002Z,102156.63
2023-05-18T04:42:45.222Z,102154.06
2023-05-18T04:44:48.833Z,102158.44
2023-05-18T04:46:50.450Z,102162.97
2023-05-18T04:48:53.160Z,102155.75
2023-05-18T04:50:56.091Z,102161.13
2023-05-18T04:52:58.378Z,102165.56
2023-05-18T04:54:59.978Z,102170.09
2023-05-18T04:57:03.498Z,102170.09
2023-05-18T04:59:04.969Z,102165.56
2023-05-18T05:01:06.902Z,102164.72
2023-05-18T05:03:08.647Z,102164.81
2023-05-18T05:05:10.293Z,102165.69
2023-05-18T05:07:11.720Z,102167.53
2023-05-18T05:09:14.747Z,102171.06
2023-05-18T05:11:16.362Z,102171.06
2023-05-18T05:13:17.874Z,102169.22
2023-05-18T05:15:20.703Z,102180.84
2023-05-18T05:17:22.710Z,102179.88
2023-05-18T05:19:24.569Z,102175.47
2023-05-18T05:21:26.371Z,102167.41
2023-05-18T05:23:28.132Z,102179.00
2023-05-18T05:25:29.819Z,102175.47
2023-05-18T05:27:31.544Z,102177.28
2023-05-18T05:29:33.174Z,102179.13
2023-05-18T05:31:34.933Z,102176.56
2023-05-18T05:33:36.523Z,102177.41
2023-05-18T05:35:38.347Z,102180.97
2023-05-18T05:37:40.075Z,102180.09
2023-05-18T05:39:41.766Z,102182.66
2023-05-18T05:41:43.511Z,102177.28
2023-05-18T05:43:45.101Z,102177.28
2023-05-18T05:45:46.623Z,102186.13
2023-05-18T05:47:49.433Z,102190.66
2023-05-18T05:49:50.920Z,102193.22
2023-05-18T05:51:52.650Z,102195.16
2023-05-18T05:53:54.124Z,102193.34
2023-05-18T05:55:55.569Z,102188.06
2023-05-18T05:57:56.985Z,102190.88
2023-05-18T05:59:58.498Z,102191.75
2023-05-18T06:02:00.072Z,102188.16
2023-05-18T06:04:04.098Z,102189.06
2023-05-18T06:06:05.881Z,102186.22
2023-05-18T06:08:07.425Z,102180.84
2023-05-18T06:10:09.035Z,102188.94
2023-05-18T06:12:10.611Z,102185.28
2023-05-18T06:14:12.201Z,102193.22
2023-05-18T06:16:13.902Z,102187.97
2023-05-18T06:18:15.569Z,102186.22
2023-05-18T06:20:17.236Z,102195.28
2023-05-18T06:22:18.752Z,102188.06
2023-05-18T06:24:20.710Z,102185.34
2023-05-18T06:26:23.114Z,102184.50
2023-05-18T06:28:24.624Z,102188.94
2023-05-18T06:30:26.134Z,102190.66
2023-05-18T06:32:27.904Z,102187.00
2023-05-18T06:34:29.543Z,102185.16
2023-05-18T06:36:32.119Z,102188.69
2023-05-18T06:38:33.631Z,102189.56
2023-05-18T06:40:35.224Z,102193.09
2023-05-18T06:42:36.691Z,102186.88
2023-05-18T06:44:38.155Z,102185.72
2023-05-18T06:46:39.757Z,102192.38
2023-05-18T06:48:44.595Z,102195.91
2023-05-18T06:50:46.260Z,102194.19
2023-05-18T06:52:47.745Z,102194.94
2023-05-18T06:54:49.269Z,102196.66
2023-05-18T06:56:50.996Z,102193.09
2023-05-18T06:58:52.778Z,102193.09
2023-05-18T07:00:54.449Z,102192.13
2023-05-18T07:02:55.918Z,102190.31
2023-05-18T07:04:58.003Z,102194.81
2023-05-18T07:06:59.549Z,102190.31
2023-05-18T07:09:02.369Z,102190.31
2023-05-18T07:11:04.533Z,102197.41
2023-05-18T07:13:06.492Z,102161.19
2023-05-18T07:15:08.150Z,102193.84
2023-05-18T07:17:09.632Z,102192.00
2023-05-18T07:19:11.489Z,102193.72
2023-05-18T07:21:13.012Z,102189.09
2023-05-18T07:23:14.614Z,102190.94
2023-05-18T07:25:16.155Z,102185.44
2023-05-18T07:27:17.678Z,102192.56
2023-05-18T07:29:19.182Z,102191.59
2023-05-18T07:31:22.198Z,102186.28
2023-05-18T07:33:23.723Z,102193.28
2023-05-18T07:35:26.484Z,102193.28
2023-05-18T07:37:28.152Z,102187.91
2023-05-18T07:39:29.741Z,102181.66
2023-05-18T07:41:31.771Z,102180.69
2023-05-18T07:43:33.286Z,102188.66
2023-05-18T07:45:35.025Z,102194.78
2023-05-18T07:47:36.938Z,102190.25
2023-05-18T07:49:39.618Z,102191.00
2023-05-18T07:51:42.494Z,102188.31
2023-05-18T07:53:45.941Z,102181.00
2023-05-18T07:55:47.891Z,102178.31
2023-05-18T07:57:49.375Z,102176.44
2023-05-18T07:59:51.198Z,102175.59
2023-05-18T08:01:52.805Z,102174.59
2023-05-18T08:03:54.697Z,102176.31
2023-05-18T08:05:56.299Z,102178.19
2023-05-18T08:07:57.765Z,102176.31
2023-05-18T08:09:59.290Z,102169.00
2023-05-18T08:12:00.877Z,102176.25
2023-05-18T08:14:02.441Z,102180.53
2023-05-18T08:18:11.885Z,102176.00
2023-05-18T08:20:13.500Z,102167.78
2023-05-18T08:22:15.528Z,102171.47
2023-05-18T08:24:17.123Z,102165.22
2023-05-18T08:26:18.713Z,102164.25
2023-05-18T08:28:20.483Z,102164.38
2023-05-18T08:30:22.101Z,102160.72
2023-05-18T08:32:24.001Z,102159.72
2023-05-18T08:34:26.012Z,102167.78
2023-05-18T08:36:27.503Z,102155.22
2023-05-18T08:38:28.975Z,102158.88
2023-05-18T08:40:33.211Z,102164.13
2023-05-18T08:42:49.320Z,102150.66
2023-05-18T08:44:58.567Z,102156.94
2023-05-18T08:47:00.596Z,102153.34
2023-05-18T08:49:04.779Z,102158.66
2023-05-18T08:51:06.777Z,102158.75
2023-05-18T08:53:09.825Z,102155.22
2023-05-18T08:55:12.483Z,102155.22
2023-05-18T08:57:14.872Z,102163.28
2023-05-18T08:59:18.709Z,102157.91
2023-05-18T09:01:20.216Z,102162.41
2023-05-18T09:03:21.977Z,102153.47
2023-05-18T09:05:24.048Z,102156.06
2023-05-18T09:07:27.637Z,102159.72
2023-05-18T09:09:29.552Z,102155.22
2023-05-18T09:11:32.643Z,102159.72
2023-05-18T09:13:34.126Z,102166.09
2023-05-18T09:15:35.688Z,102159.84
2023-05-18T09:17:37.684Z,102164.47
2023-05-18T09:19:39.556Z,102163.63
2023-05-18T09:21:41.109Z,102157.41
2023-05-18T09:23:43.357Z,102161.91
2023-05-18T09:25:46.088Z,102154.78
2023-05-18T09:27:51.787Z,102158.38
2023-05-18T09:29:54.355Z,102161.78
2023-05-18T09:31:55.866Z,102153.81
2023-05-18T09:33:58.900Z,102156.41
2023-05-18T09:36:00.911Z,102158.25
2023-05-18T09:38:05.659Z,102164.47
2023-05-18T09:40:08.285Z,102157.41
2023-05-18T09:42:09.760Z,102167.28
2023-05-18T09:44:12.551Z,102158.38
2023-05-18T09:46:14.587Z,102156.50
2023-05-18T09:48:16.601Z,102152.84
2023-05-18T09:50:21.381Z,102151.00
2023-05-18T09:52:22.898Z,102159.00
2023-05-18T09:54:24.587Z,102147.34
2023-05-18T09:56:26.963Z,102148.94
2023-05-18T09:58:31.589Z,102145.41
2023-05-18T10:00:37.220Z,102142.72
2023-05-18T10:02:40.252Z,102148.09
2023-05-18T10:04:42.855Z,102143.56
2023-05-18T10:06:49.417Z,102142.84
2023-05-18T10:08:50.960Z,102137.31
2023-05-18T10:10:52.474Z,102138.19
2023-05-18T10:12:54.728Z,102132.78
2023-05-18T10:14:56.375Z,102131.09
2023-05-18T10:17:14.303Z,102122.03
2023-05-18T10:19:17.093Z,102138.94
2023-05-18T10:21:19.473Z,102139.91
2023-05-18T10:23:21.950Z,102127.31
2023-05-18T10:25:25.635Z,102137.13
2023-05-18T10:27:28.383Z,102133.41
2023-05-18T10:29:31.308Z,102133.41
2023-05-18T10:31:35.367Z,102135.25
2023-05-18T10:33:38.081Z,102133.53
2023-05-18T10:35:39.780Z,102132.56
2023-05-18T10:37:47.280Z,102121.81
2023-05-18T10:39:50.733Z,102122.66
2023-05-18T10:41:54.339Z,102118.13
2023-05-18T10:44:02.360Z,102122.56
2023-05-18T10:46:05.229Z,102119.84
2023-05-18T10:48:09.375Z,102110.78
2023-05-18T10:50:11.093Z,102112.13
2023-05-18T10:52:13.254Z,102119.59
2023-05-18T10:54:14.976Z,102114.22
2023-05-18T10:56:16.737Z,102109.72
2023-05-18T10:58:19.634Z,102120.47
2023-05-18T11:00:21.295Z,102124.03
2023-05-18T11:02:23.333Z,102106.03
2023-05-18T11:04:29.913Z,102104.19
2023-05-18T11:06:33.575Z,102105.19
2023-05-18T11:08:42.441Z,102105.94
2023-05-18T11:10:47.040Z,102109.47
2023-05-18T11:12:48.656Z,102113.88
2023-05-18T11:14:53.919Z,102102.13
2023-05-18T11:17:15.648Z,102103.94
2023-05-18T11:19:17.358Z,102107.66
2023-05-18T11:21:19.654Z,102103.09
2023-05-18T11:23:23.802Z,102103.09
2023-05-18T11:25:28.403Z,102098.56
2023-05-18T11:27:30.077Z,102102.13
2023-05-18T11:29:35.756Z,102102.97
2023-05-18T11:31:44.269Z,102097.59
2023-05-18T11:33:45.834Z,102091.25
2023-05-18T11:36:07.387Z,102090.25
2023-05-18T11:38:09.676Z,102093.81
2023-05-18T11:40:12.185Z,102088.53
2023-05-18T11:42:18.001Z,102095.66
2023-05-18T11:44:22.635Z,102083.03
2023-05-18T11:46:24.233Z,102081.25
2023-05-18T11:48:26.784Z,102075.84
2023-05-18T11:50:30.240Z,102083.81
2023-05-18T11:52:33.062Z,102084.78
2023-05-18T11:54:36.309Z,102072.25
2023-05-18T11:56:38.083Z,102073.16
2023-05-18T11:58:39.577Z,102067.78
2023-05-18T12:00:41.854Z,102066.81
2023-05-18T12:02:45.040Z,102074.88
2023-05-18T12:04:48.385Z,102067.66
2023-05-18T12:06:50.014Z,102066.56
2023-05-18T12:08:52.045Z,102069.38
2023-05-18T12:10:54.998Z,102069.16
2023-05-18T12:12:57.274Z,102073.66
2023-05-18T12:15:00.518Z,102080.91
2023-05-18T12:17:02.142Z,102052.28
2023-05-18T12:19:03.842Z,102067.66
2023-05-18T12:21:05.807Z,102072.19
2023-05-18T12:23:07.393Z,102066.56
2023-05-18T12:25:09.157Z,102070.34
2023-05-18T12:27:12.001Z,102064.00
2023-05-18T12:29:20.137Z,102064.00
2023-05-18T12:31:22.374Z,102060.44
2023-05-18T12:33:23.868Z,102061.28
2023-05-18T12:35:26.142Z,102053.34
2023-05-18T12:37:34.178Z,102046.84
2023-05-18T12:39:45.766Z,102042.44
2023-05-18T12:41:47.652Z,102036.22
2023-05-18T12:43:49.665Z,102052.47
2023-05-18T12:45:51.182Z,102047.97
2023-05-18T12:47:56.394Z,102041.69
2023-05-18T12:50:01.230Z,102032.63
2023-05-18T12:52:08.208Z,102038.91
2023-05-18T12:54:10.137Z,102030.69
2023-05-18T12:56:12.691Z,102035.94
2023-05-18T12:58:17.878Z,102040.50
2023-05-18T13:00:19.694Z,102036.81
2023-05-18T13:02:27.242Z,102043.06
2023-05-18T13:04:38.035Z,102037.69
2023-05-18T13:06:39.833Z,102042.94
2023-05-18T13:08:41.360Z,102040.38
2023-05-18T13:10:43.884Z,102043.06
2023-05-18T13:12:47.122Z,102031.31
2023-05-18T13:14:48.635Z,102035.72
2023-05-18T13:16:51.996Z,102027.53
2023-05-18T13:19:00.769Z,102024.56
2023-05-18T13:21:02.298Z,102022.00
2023-05-18T13:23:05.252Z,102021.03
2023-05-18T13:25:07.367Z,102020.19
2023-05-18T13:27:08.880Z,102010.38
2023-05-18T13:29:11.035Z,102023.72
2023-05-18T13:31:13.032Z,102003.00
2023-05-18T13:33:16.812Z,102017.84
2023-05-18T13:35:19.157Z,102017.84
2023-05-18T13:37:20.711Z,102010.75
2023-05-18T13:39:22.887Z,102009.03
2023-05-18T13:41:26.097Z,102011.59
2023-05-18T13:43:27.621Z,102006.59
2023-05-18T13:45:30.940Z,102013.78
2023-05-18T13:47:33.048Z,102004.88
2023-05-18T13:49:34.576Z,102005.84
2023-05-18T13:51:36.010Z,102004.88
2023-05-18T13:53:38.854Z,102009.47
2023-05-18T13:55:42.216Z,102001.19
2023-05-18T13:57:44.423Z,102000.44
2023-05-18T13:59:46.918Z,101993.44
2023-05-18T14:01:49.553Z,101993.53
2023-05-18T14:03:51.196Z,101992.81
2023-05-18T14:05:52.750Z,101999.31
2023-05-18T14:07:54.373Z,101994.16
2023-05-18T14:09:56.126Z,101977.16
2023-05-18T14:11:59.881Z,101979.84
2023-05-18T14:14:01.397Z,101991.59
2023-05-18T14:16:03.010Z,101995.47
2023-05-18T14:18:04.627Z,101992.91
2023-05-18T14:20:07.090Z,101991.19
2023-05-18T14:22:08.618Z,101984.72
2023-05-18T14:24:10.451Z,101979.44
2023-05-18T14:26:11.989Z,101982.16
2023-05-18T14:28:13.602Z,101980.31
2023-05-18T14:30:15.226Z,101982.16
2023-05-18T14:32:17.046Z,101974.06
2023-05-18T14:34:18.564Z,101983.88
2023-05-18T14:36:22.019Z,101972.13
2023-05-18T14:38:26.884Z,101971.16
2023-05-18T14:40:28.836Z,101961.22
2023-05-18T14:42:30.888Z,101971.16
2023-05-18T14:44:32.395Z,101971.16
2023-05-18T14:46:34.488Z,101971.16
2023-05-18T14:48:36.468Z,101963.06
2023-05-18T14:50:38.749Z,101963.91
2023-05-18T14:52:41.254Z,101970.41
2023-05-18T14:54:42.959Z,101971.50
2023-05-18T14:56:44.466Z,101959.84
2023-05-18T14:58:46.057Z,101949.84
2023-05-18T15:00:47.589Z,101960.59
2023-05-18T15:02:49.313Z,101955.09
2023-05-18T15:04:50.964Z,101953.28
2023-05-18T15:06:52.891Z,101955.00
2023-05-18T15:08:55.011Z,101955.97
2023-05-18T15:10:56.606Z,101955.09
2023-05-18T15:12:58.191Z,101958.66
2023-05-18T15:14:59.635Z,101954.25
2023-05-18T15:17:01.152Z,101945.31
2023-05-18T15:19:04.385Z,101949.84
2023-05-18T15:21:06.035Z,101954.38
2023-05-18T15:23:07.585Z,101959.75
2023-05-18T15:25:09.245Z,101963.44
2023-05-18T15:27:12.019Z,101965.50
2023-05-18T15:29:13.770Z,101962.06
2023-05-18T15:31:15.742Z,101959.38
2023-05-18T15:33:17.311Z,101952.53
2023-05-18T15:35:19.083Z,101947.13
2023-05-18T15:37:20.626Z,101948.94
2023-05-18T15:39:22.111Z,101952.53
2023-05-18T15:41:23.639Z,101945.53
2023-05-18T15:43:26.172Z,101944.81
2023-05-18T15:45:27.635Z,101950.19
2023-05-18T15:47:29.117Z,101952.13
2023-05-18T15:49:30.634Z,101945.66
2023-05-18T15:51:32.344Z,101950.19
2023-05-18T15:53:33.928Z,101936.84
2023-05-18T15:55:35.584Z,101949.34
2023-05-18T15:57:37.134Z,101946.75
2023-05-18T15:59:38.666Z,101944.94
2023-05-18T16:01:40.203Z,101950.41
2023-05-18T16:03:42.813Z,101946.75
2023-05-18T16:05:44.522Z,101946.03
2023-05-18T16:07:46.282Z,101943.56
2023-05-18T16:09:48.341Z,101950.88
2023-05-18T16:11:49.772Z,101948.19
2023-05-18T16:13:56.749Z,101947.47
2023-05-18T16:15:59.073Z,101941.22
2023-05-18T16:18:00.940Z,101941.97
2023-05-18T16:20:03.962Z,101945.75
2023-05-18T16:22:05.772Z,101933.16
2023-05-18T16:24:07.356Z,101935.09
2023-05-18T16:26:09.594Z,101932.66
2023-05-18T16:28:11.226Z,101941.94
2023-05-18T16:30:12.994Z,101929.69
2023-05-18T16:32:14.601Z,101926.16
2023-05-18T16:34:16.207Z,101930.03
2023-05-18T16:36:17.695Z,101924.66
2023-05-18T16:38:19.163Z,101923.69
2023-05-18T16:40:20.744Z,101924.66
2023-05-18T16:42:22.968Z,101926.50
2023-05-18T16:44:24.547Z,101928.31
2023-05-18T16:46:26.147Z,101933.59
2023-05-18T16:48:27.688Z,101926.50
2023-05-18T16:50:30.045Z,101929.41
2023-05-18T16:52:31.690Z,101927.69
2023-05-18T16:54:33.361Z,101924.28
2023-05-18T16:56:35.824Z,101920.94
2023-05-18T16:58:37.484Z,101922.88
2023-05-18T17:00:38.987Z,101914.94
2023-05-18T17:02:40.786Z,101923.34
2023-05-18T17:04:44.639Z,101928.84
2023-05-18T17:06:46.234Z,101923.47
2023-05-18T17:08:47.713Z,101924.44
2023-05-18T17:10:49.432Z,101930.66
2023-05-18T17:12:51.701Z,101928.09
2023-05-18T17:14:53.139Z,101928.22
2023-05-18T17:16:55.211Z,101926.63
2023-05-18T17:18:57.629Z,101921.34
2023-05-18T17:20:59.324Z,101929.53
2023-05-18T17:23:02.190Z,101926.00
2023-05-18T17:25:04.534Z,101922.56
2023-05-18T17:27:06.132Z,101926.22
2023-05-18T17:29:07.576Z,101922.69
2023-05-18T17:31:09.166Z,101920.97
2023-05-18T17:33:10.716Z,101924.50
2023-05-18T17:35:14.304Z,101921.94
2023-05-18T17:37:16.569Z,101915.09
2023-05-18T17:39:18.039Z,101917.78
2023-05-18T17:41:22.236Z,101924.97
2023-05-18T17:43:23.808Z,101928.63
2023-05-18T17:45:25.364Z,101936.69
2023-05-18T17:47:26.896Z,101937.56
2023-05-18T17:49:28.462Z,101937.56
2023-05-18T17:51:29.948Z,101934.00
2023-05-18T17:53:31.542Z,101928.88
2023-05-18T17:55:33.232Z,101934.97
2023-05-18T17:57:35.675Z,101929.59
2023-05-18T17:59:37.542Z,101936.94
2023-05-18T18:01:39.280Z,101939.63
2023-05-18T18:03:41.676Z,101930.59
2023-05-18T18:05:43.206Z,101933.28
2023-05-18T18:07:44.751Z,101934.13
2023-05-18T18:09:46.466Z,101928.63
2023-05-18T18:11:48.262Z,101935.09
2023-05-18T18:13:50.296Z,101934.25
2023-05-18T18:15:51.779Z,101938.03
2023-05-18T18:17:53.883Z,101937.06
2023-05-18T18:19:55.791Z,101933.28
2023-05-18T18:21:57.304Z,101936.69
2023-05-18T18:23:58.841Z,101940.97
2023-05-18T18:26:00.892Z,101940.75
2023-05-18T18:28:02.387Z,101940.75
2023-05-18T18:30:04.680Z,101940.63
2023-05-18T18:32:06.322Z,101945.94
2023-05-18T18:34:07.988Z,101950.22
2023-05-18T18:36:09.470Z,101949.25
2023-05-18T18:38:12.832Z,101953.63
2023-05-18T18:40:17.852Z,101950.09
2023-05-18T18:42:21.551Z,101957.91
2023-05-18T18:44:23.233Z,101951.56
2023-05-18T18:46:24.795Z,101958.53
2023-05-18T18:48:26.756Z,101949.50
2023-05-18T18:50:28.924Z,101954.78
2023-05-18T18:52:30.707Z,101959.16
2023-05-18T18:54:32.262Z,101963.34
2023-05-18T18:56:33.801Z,101971.41
2023-05-18T18:58:35.908Z,101963.22
2023-05-18T19:00:37.563Z,101963.09
2023-05-18T19:02:39.565Z,101963.09
2023-05-18T19:04:41.151Z,101970.19
2023-05-18T19:06:42.656Z,101971.06
2023-05-18T19:08:44.225Z,101978.19
2023-05-18T19:10:45.698Z,101976.25
2023-05-18T19:12:48.554Z,101976.13
2023-05-18T19:14:50.127Z,101976.03
2023-05-18T19:16:51.877Z,101969.69
2023-05-18T19:18:53.313Z,101978.38
2023-05-18T19:20:54.905Z,101974.69
2023-05-18T19:22:56.572Z,101977.28
2023-05-18T19:24:58.037Z,101978.13
2023-05-18T19:26:59.535Z,101986.94
2023-05-18T19:29:01.076Z,101988.75
2023-05-18T19:31:02.549Z,101986.06
2023-05-18T19:33:04.164Z,101983.28
2023-05-18T19:35:05.726Z,101989.38
2023-05-18T19:37:07.260Z,101995.63
2023-05-18T19:39:09.645Z,101996.13
2023-05-18T19:41:12.709Z,101998.97
2023-05-18T19:43:14.245Z,102003.13
2023-05-18T19:45:16.167Z,101996.00
2023-05-18T19:47:17.861Z,102003.00
2023-05-18T19:49:19.414Z,102000.31
2023-05-18T19:51:20.878Z,102003.88
2023-05-18T19:53:23.073Z,102006.44
2023-05-18T19:55:24.843Z,102012.69
2023-05-18T19:57:26.553Z,102004.63
2023-05-18T19:59:29.314Z,102011.59
2023-05-18T20:01:32.126Z,102013.41
2023-05-18T20:03:33.775Z,102015.00
2023-05-18T20:05:35.593Z,102012.22
2023-05-18T20:07:37.464Z,102018.44
2023-05-18T20:09:38.907Z,102017.47
2023-05-18T20:11:40.483Z,102024.56
2023-05-18T20:13:43.739Z,102017.34
2023-05-18T20:15:45.533Z,102020.03
2023-05-18T20:17:47.128Z,102023.59
2023-05-18T20:19:52.114Z,102020.91
2023-05-18T20:21:53.692Z,102018.94
2023-05-18T20:23:56.272Z,102025.31
2023-05-18T20:25:57.823Z,102031.56
2023-05-18T20:28:01.263Z,102038.53
2023-05-18T20:30:03.613Z,102030.34
2023-05-18T20:32:05.323Z,102032.06
2023-05-18T20:34:07.027Z,102040.00
2023-05-18T20:36:09.127Z,102030.94
2023-05-18T20:38:12.411Z,102038.06
2023-05-18T20:40:13.933Z,102039.91
2023-05-18T20:42:15.641Z,102038.19
2023-05-18T20:44:23.497Z,102041.72
2023-05-18T20:46:27.442Z,102039.03
2023-05-18T20:48:29.143Z,102041.72
2023-05-18T20:50:31.185Z,102044.41
2023-05-18T20:52:33.001Z,102046.00
2023-05-18T20:54:34.689Z,102040.63
2023-05-18T20:56:36.418Z,102042.34
2023-05-18T20:58:42.415Z,102048.47
2023-05-18T21:00:44.415Z,102051.16
2023-05-18T21:02:46.775Z,102046.63
2023-05-18T21:04:48.507Z,102047.63
2023-05-18T21:06:50.181Z,102052.91
2023-05-18T21:08:52.531Z,102052.03
2023-05-18T21:10:54.515Z,102048.47
2023-05-18T21:12:56.361Z,102054.72
2023-05-18T21:14:57.883Z,102055.59
2023-05-18T21:16:59.412Z,102054.63
2023-05-18T21:19:02.008Z,102062.69
2023-05-18T21:21:03.802Z,102067.09
2023-05-18T21:23:05.483Z,102058.91
2023-05-18T21:25:07.211Z,102065.13
2023-05-18T21:27:08.737Z,102067.81
2023-05-18T21:29:10.368Z,102066.00
2023-05-18T21:31:11.910Z,102067.69
2023-05-18T21:33:13.637Z,102065.88
2023-05-18T21:35:15.520Z,102059.75
2023-05-18T21:37:17.077Z,102063.31
2023-05-18T21:39:18.570Z,102056.09
2023-05-18T21:41:20.060Z,102054.38
2023-05-18T21:43:21.589Z,102059.75
2023-05-18T21:45:23.460Z,102053.38
2023-05-18T21:47:25.295Z,102058.66
2023-05-18T21:49:26.938Z,102065.75
2023-05-18T21:51:28.871Z,102064.91
2023-05-18T21:53:30.389Z,102061.34
2023-05-18T21:55:32.445Z,102064.03
2023-05-18T21:57:34.453Z,102067.59
2023-05-18T21:59:36.115Z,102064.03
2023-05-18T22:01:37.652Z,102055.94
2023-05-18T22:03:39.801Z,102055.94
2023-05-18T22:05:44.675Z,102057.81
2023-05-18T22:07:46.458Z,102055.94
2023-05-18T22:09:47.985Z,102056.84
2023-05-18T22:11:49.475Z,102057.69
2023-05-18T22:13:51.438Z,102051.31
2023-05-18T22:15:52.943Z,102053.03
2023-05-18T22:17:54.538Z,102053.03
2023-05-18T22:19:57.926Z,102061.13
2023-05-18T22:22:01.291Z,102052.16
2023-05-18T22:24:02.758Z,102053.03
2023-05-18T22:26:04.339Z,102050.47
2023-05-18T22:28:05.879Z,102051.44
2023-05-18T22:30:08.041Z,102045.09
2023-05-18T22:32:09.759Z,102049.47
2023-05-18T22:34:11.242Z,102048.63
2023-05-18T22:36:12.803Z,102045.09
2023-05-18T22:38:14.575Z,102035.63
2023-05-18T22:40:16.308Z,102042.63
2023-05-18T22:42:17.950Z,102042.13
2023-05-18T22:44:19.564Z,102042.13
2023-05-18T22:46:21.231Z,102041.16
2023-05-18T22:48:22.965Z,102043.13
2023-05-18T22:50:24.735Z,102040.31
2023-05-18T22:52:26.727Z,102044.00
2023-05-18T22:54:28.164Z,102042.13
2023-05-18T22:56:29.662Z,102046.78
2023-05-18T22:58:31.184Z,102044.97
2023-05-18T23:00:32.781Z,102039.56
2023-05-18T23:02:34.638Z,102041.38
2023-05-18T23:04:36.238Z,102037.63
2023-05-18T23:06:38.136Z,102036.75
2023-05-18T23:08:39.590Z,102035.78
2023-05-18T23:10:42.478Z,102043.88
2023-05-18T23:12:45.617Z,102042.00
2023-05-18T23:14:49.649Z,102043.00
2023-05-18T23:16:52.399Z,102045.72
2023-05-18T23:18:54.226Z,102043.13